createdAt,value
2023-02-11T00:03:36.801Z,10.00
2023-02-11T00:08:41.813Z,10.03
2023-02-11T00:13:46.472Z,12.47
2023-02-11T00:18:50.532Z,12.13
2023-02-11T00:23:57.253Z,10.50
2023-02-11T00:29:02.712Z,10.57
2023-02-11T00:34:08.320Z,11.70
2023-02-11T00:39:13.393Z,11.30
2023-02-11T00:44:17.090Z,9.10
2023-02-11T00:49:22.588Z,11.57
2023-02-11T00:54:29.926Z,12.33
2023-02-11T00:59:33.542Z,11.60
2023-02-11T01:04:42.875Z,13.57
2023-02-11T01:09:47.758Z,12.10
2023-02-11T01:14:51.263Z,9.77
2023-02-11T01:19:56.484Z,13.53
2023-02-11T01:25:04.982Z,13.03
2023-02-11T01:30:10.479Z,11.73
2023-02-11T01:35:15.933Z,11.37
2023-02-11T01:40:21.197Z,11.57
2023-02-11T01:45:57.186Z,10.67
2023-02-11T01:51:06.082Z,14.67
2023-02-11T01:56:29.014Z,13.37
2023-02-11T02:01:35.615Z,10.93
2023-02-11T02:06:45.916Z,13.60
2023-02-11T02:11:52.268Z,15.03
2023-02-11T02:16:55.906Z,12.83
2023-02-11T02:22:18.087Z,14.83
2023-02-11T02:27:39.093Z,12.50
2023-02-11T02:32:57.249Z,13.33
2023-02-11T02:38:08.036Z,14.03
2023-02-11T02:43:12.864Z,14.50
2023-02-11T02:48:32.230Z,16.43
2023-02-11T02:53:47.018Z,11.87
2023-02-11T02:59:04.108Z,14.17
2023-02-11T03:04:19.548Z,13.60
2023-02-11T03:09:29.067Z,13.57
2023-02-11T03:14:33.498Z,13.97
2023-02-11T03:19:40.637Z,13.27
2023-02-11T03:24:45.298Z,14.27
2023-02-11T03:29:54.914Z,12.20
2023-02-11T03:35:03.658Z,10.63
2023-02-11T03:40:12.828Z,14.03
2023-02-11T03:45:21.064Z,15.10
2023-02-11T03:50:34.983Z,11.70
2023-02-11T03:55:40.844Z,11.47
2023-02-11T04:00:45.260Z,10.40
2023-02-11T04:05:50.445Z,12.57
2023-02-11T04:10:54.254Z,11.67
2023-02-11T04:15:58.082Z,11.23
2023-02-11T04:21:03.090Z,14.33
2023-02-11T04:26:07.323Z,13.43
2023-02-11T04:31:12.172Z,12.97
2023-02-11T04:36:17.336Z,16.27
2023-02-11T04:41:21.010Z,12.23
2023-02-11T04:46:24.670Z,15.37
2023-02-11T04:51:31.066Z,12.37
2023-02-11T04:56:35.406Z,11.67
2023-02-11T05:01:39.219Z,10.57
2023-02-11T05:06:44.177Z,13.60
2023-02-11T05:11:48.313Z,15.37
2023-02-11T05:16:52.153Z,14.17
2023-02-11T05:22:03.042Z,13.37
2023-02-11T05:27:06.997Z,10.93
2023-02-11T05:32:12.320Z,12.10
2023-02-11T05:37:17.787Z,9.70
2023-02-11T05:42:21.404Z,12.07
2023-02-11T05:47:25.160Z,10.73
2023-02-11T05:52:33.408Z,9.60
2023-02-11T05:57:37.985Z,11.43
2023-02-11T06:02:41.871Z,11.70
2023-02-11T06:07:46.804Z,11.03
2023-02-11T06:12:51.064Z,9.47
2023-02-11T06:17:58.123Z,11.43
2023-02-11T06:23:04.599Z,9.93
2023-02-11T06:28:08.670Z,11.57
2023-02-11T06:33:12.238Z,10.83
2023-02-11T06:38:17.314Z,12.60
2023-02-11T06:43:21.277Z,11.60
2023-02-11T06:48:25.477Z,11.80
2023-02-11T06:53:30.768Z,12.40
2023-02-11T06:58:37.444Z,11.47
2023-02-11T07:03:43.779Z,11.53
2023-02-11T07:08:49.884Z,11.60
2023-02-11T07:13:55.340Z,12.03
2023-02-11T07:18:59.169Z,11.93
2023-02-11T07:24:10.378Z,11.27
2023-02-11T07:29:14.420Z,10.83
2023-02-11T07:34:18.185Z,9.63
2023-02-11T07:39:29.936Z,12.10
2023-02-11T07:44:35.135Z,11.03
2023-02-11T07:49:38.703Z,12.83
2023-02-11T07:54:43.599Z,12.27
2023-02-11T07:59:47.255Z,11.53
2023-02-11T08:04:50.920Z,13.37
2023-02-11T08:09:56.121Z,12.13
2023-02-11T08:14:59.828Z,11.70
2023-02-11T08:20:03.436Z,13.40
2023-02-11T08:25:09.356Z,10.30
2023-02-11T08:30:14.046Z,10.50
2023-02-11T08:35:17.771Z,9.70
2023-02-11T08:40:22.813Z,9.50
2023-02-11T08:45:26.218Z,12.27
2023-02-11T08:50:29.802Z,10.13
2023-02-11T08:55:34.625Z,9.70
2023-02-11T09:00:38.005Z,12.50
2023-02-11T09:05:43.721Z,11.60
2023-02-11T09:10:49.082Z,11.73
2023-02-11T09:15:52.615Z,13.00
2023-02-11T09:21:03.056Z,13.90
2023-02-11T09:26:09.975Z,13.60
2023-02-11T09:31:17.677Z,14.43
2023-02-11T09:36:24.085Z,11.93
2023-02-11T09:41:40.413Z,11.33
2023-02-11T09:46:44.994Z,10.43
2023-02-11T09:51:51.159Z,9.23
2023-02-11T09:56:55.934Z,9.77
2023-02-11T10:02:03.639Z,10.93
2023-02-11T10:07:20.254Z,9.00
2023-02-11T10:12:44.932Z,10.17
2023-02-11T10:18:03.002Z,9.93
2023-02-11T10:23:15.567Z,10.37
2023-02-11T10:28:22.078Z,8.97
2023-02-11T10:33:29.157Z,7.83
2023-02-11T10:38:33.131Z,8.13
2023-02-11T10:43:38.446Z,10.83
2023-02-11T10:48:45.260Z,10.03
2023-02-11T10:53:49.976Z,8.90
2023-02-11T10:59:01.272Z,10.03
2023-02-11T11:04:05.935Z,10.10
2023-02-11T11:09:28.833Z,12.17
2023-02-11T11:14:33.627Z,11.27
2023-02-11T11:19:39.308Z,9.87
2023-02-11T11:24:46.854Z,8.53
2023-02-11T11:29:55.034Z,9.20
2023-02-11T11:35:03.703Z,9.50
2023-02-11T11:40:11.471Z,9.63
2023-02-11T11:45:27.782Z,8.30
2023-02-11T11:50:36.510Z,7.87
2023-02-11T11:55:43.425Z,8.80
2023-02-11T12:00:59.911Z,8.73
2023-02-11T12:06:15.661Z,8.10
2023-02-11T12:11:25.554Z,7.23
2023-02-11T12:16:43.823Z,8.37
2023-02-11T12:21:57.708Z,7.37
2023-02-11T12:27:07.547Z,6.77
2023-02-11T12:32:27.300Z,7.77
2023-02-11T12:37:43.449Z,9.20
2023-02-11T12:43:19.062Z,7.73
2023-02-11T12:48:55.049Z,7.30
2023-02-11T12:54:21.466Z,7.83
2023-02-11T12:59:40.110Z,7.40
2023-02-11T13:04:51.363Z,8.53
2023-02-11T13:10:02.459Z,9.37
2023-02-11T13:15:14.333Z,8.90
2023-02-11T13:20:28.686Z,10.43
2023-02-11T13:25:41.011Z,10.77
2023-02-11T13:30:47.698Z,8.97
2023-02-11T13:36:13.901Z,8.53
2023-02-11T13:41:22.467Z,10.33
2023-02-11T13:46:29.312Z,9.30
2023-02-11T13:51:39.957Z,8.93
2023-02-11T13:56:46.371Z,10.97
2023-02-11T14:02:38.905Z,10.43
2023-02-11T14:08:38.467Z,9.30
2023-02-11T14:14:15.873Z,11.33
2023-02-11T14:19:33.651Z,10.25
2023-02-11T14:24:53.415Z,10.13
2023-02-11T14:30:19.931Z,8.97
2023-02-11T14:35:33.022Z,10.23
2023-02-11T14:40:43.602Z,7.90
2023-02-11T14:45:52.917Z,8.70
2023-02-11T14:51:02.112Z,9.73
2023-02-11T14:56:20.389Z,9.50
2023-02-11T15:01:32.234Z,13.23
2023-02-11T15:12:24.345Z,17.60
2023-02-11T15:17:33.233Z,10.13
2023-02-11T15:22:39.921Z,7.63
2023-02-11T15:27:45.808Z,6.83
2023-02-11T15:32:53.394Z,6.67
2023-02-11T15:37:59.214Z,6.23
2023-02-11T15:43:05.810Z,6.63
2023-02-11T15:48:22.512Z,5.73
2023-02-11T15:53:32.303Z,5.67
2023-02-11T15:58:40.776Z,6.33
2023-02-11T16:03:52.578Z,6.80
2023-02-11T16:09:04.771Z,5.73
2023-02-11T16:14:25.212Z,5.77
2023-02-11T16:19:34.584Z,6.80
2023-02-11T16:24:40.362Z,6.47
2023-02-11T16:29:51.468Z,6.43
2023-02-11T16:35:05.937Z,7.97
2023-02-11T16:40:13.482Z,6.03
2023-02-11T16:45:19.435Z,7.90
2023-02-11T16:50:27.819Z,6.97
2023-02-11T16:55:34.943Z,7.27
2023-02-11T17:00:39.693Z,6.30
2023-02-11T17:05:55.397Z,6.03
2023-02-11T17:11:04.232Z,6.17
2023-02-11T17:16:17.593Z,7.20
2023-02-11T17:21:27.627Z,5.90
2023-02-11T17:26:35.844Z,6.43
2023-02-11T17:31:41.317Z,7.73
2023-02-11T17:36:48.076Z,7.97
2023-02-11T17:41:53.430Z,8.47
2023-02-11T17:47:04.792Z,9.17
2023-02-11T17:52:11.575Z,8.77
2023-02-11T17:57:17.768Z,7.80
2023-02-11T18:02:23.271Z,8.90
2023-02-11T18:07:34.410Z,11.17
2023-02-11T18:12:39.121Z,8.83
2023-02-11T18:17:44.274Z,7.23
2023-02-11T18:22:50.611Z,7.83
2023-02-11T18:27:55.167Z,8.33
2023-02-11T18:33:00.482Z,7.60
2023-02-11T18:38:06.508Z,9.03
2023-02-11T18:43:17.385Z,9.10
2023-02-11T18:48:22.120Z,9.57
2023-02-11T18:53:27.794Z,8.40
2023-02-11T18:58:33.886Z,8.20
2023-02-11T19:03:40.773Z,8.97
2023-02-11T19:08:48.055Z,7.33
2023-02-11T19:13:53.865Z,6.63
2023-02-11T19:18:59.361Z,7.30
2023-02-11T19:24:09.301Z,7.97
2023-02-11T19:29:15.079Z,7.00
2023-02-11T19:34:23.103Z,7.33
2023-02-11T19:39:30.164Z,10.73
2023-02-11T19:44:35.352Z,9.17
2023-02-11T19:49:40.815Z,10.53
2023-02-11T19:54:47.287Z,11.60
2023-02-11T19:59:58.195Z,9.00
2023-02-11T20:05:04.605Z,9.63
2023-02-11T20:10:12.976Z,9.03
2023-02-11T20:15:18.111Z,8.17
2023-02-11T20:20:22.742Z,9.40
2023-02-11T20:25:30.409Z,11.00
2023-02-11T20:30:34.467Z,10.33
2023-02-11T20:35:51.240Z,10.03
2023-02-11T20:40:58.467Z,10.40
2023-02-11T20:46:12.571Z,10.23
2023-02-11T20:51:21.677Z,8.43
2023-02-11T20:56:30.120Z,7.10
2023-02-11T21:01:36.637Z,9.07
2023-02-11T21:06:45.816Z,7.97
2023-02-11T21:11:53.837Z,9.07
2023-02-11T21:16:59.141Z,6.90
2023-02-11T21:22:03.886Z,8.97
2023-02-11T21:27:09.878Z,7.10
2023-02-11T21:32:18.203Z,9.33
2023-02-11T21:37:24.220Z,8.03
2023-02-11T21:42:33.605Z,7.10
2023-02-11T21:47:38.783Z,8.67
2023-02-11T21:52:43.739Z,7.43
2023-02-11T21:57:50.390Z,7.17
2023-02-11T22:02:54.331Z,7.63
2023-02-11T22:07:58.988Z,9.93
2023-02-11T22:13:04.799Z,8.37
2023-02-11T22:18:08.509Z,6.70
2023-02-11T22:23:12.007Z,7.87
2023-02-11T22:28:16.872Z,8.83
2023-02-11T22:33:20.194Z,9.07
2023-02-11T22:38:23.579Z,8.00
2023-02-11T22:43:28.936Z,8.17
2023-02-11T22:48:33.172Z,8.47
2023-02-11T22:53:36.766Z,10.07
2023-02-11T22:58:41.604Z,8.60
2023-02-11T23:03:45.258Z,9.23
2023-02-11T23:08:48.809Z,9.97
2023-02-11T23:13:54.474Z,9.30
2023-02-11T23:19:01.399Z,9.80
2023-02-11T23:24:07.623Z,9.40
2023-02-11T23:29:16.366Z,7.43
2023-02-11T23:34:25.333Z,7.93
2023-02-11T23:39:29.101Z,8.57
2023-02-11T23:44:34.007Z,10.17
2023-02-11T23:49:37.350Z,9.70
2023-02-11T23:54:40.946Z,8.27
2023-02-11T23:59:45.897Z,9.63
